Aeroporto :
LOGIN :

Iscrizione | Disclaimer

   EN    FR    IT 

 










Sommario :    VFR   VFR Marginale   IFR   IFR Intensivo   IFR Molto Intensivo
Visibilità : 
Base nubi : 
>= 8 km
>= 3000ft
5 / 8 km
1000 / 3000 ft
1500m / 5 km
500 / 1000 ft
800 / 1500m
200 / 500 ft
< 800m
< 200 ft
Simboli :   Temporali  Nebbia  Neve Forte  Precipitazioni Forti  Vento > 20 kt
SIGMETs :   Varie  Temporali  Ghiacco  Turbolenza  Onda orograficha  Ceneri Vulcaniche






- Altitudine del aeroporto : 277 ft
- Codice IATA : JER


EGJJ - Jersey

ULTIMO METAR :
  • 191920Z 04007KT 360V080 CAVOK 06/03 Q1047

METARs OBSOLETI :
  • 191850Z 04008KT 010V070 9999 FEW028 06/03 Q1047
  • 191820Z 03007KT 360V070 9999 FEW028 06/02 Q1046
  • 191750Z 03008KT 360V060 9999 FEW028 06/02 Q1046
  • 191720Z 03007KT 360V070 9999 FEW028 06/02 Q1046
  • 191650Z 03006KT 9999 FEW028 06/02 Q1045

TAF TAF EGJJ
Valido dal 19 a 18 ore il 20 a 03 ore UTC


191700Z 1918/2003 04008KT 9999 FEW028
ATIS : +44 1534 498 073



MetMap, La meteo Aeronautica in un colpo d'occhio ! - Copyright ORBIFLY Dicembre 2007 - Disclaimer

ORBIFLY MET'MAP TEAM :

Programmazione e sviluppo : Alexandra Zaïnal
Concezione : Baudouin d'Aumeries
Aiuto per la programmazione : Marc-Olivier Méhu
Supporto tecnico e logistico : Manuel Goepfert
Aiuto per la traduzione : Arnaldo La Scala

Contatto : metmap@orbifly.com




FONTI E CREDITI :

   NOAA